Time;durP1;ratioP1;P1;durP2;ratioP2;P2;SDS_P1;SDS_P2;PMS_P1;PMS_P2;Temp;Humidity;BMP_temperature;BMP_pressure;BME280_temperature;BME280_humidity;BME280_pressure;Samples;Min_cycle;Max_cycle;Signal;HPM_P1;HPM_P2
2024/02/03 00:00:11;;;;;;;;;;;2.00;86.00;;;;;;5015678;28;87846;-56
2024/02/03 00:02:37;;;;;;;;;;;2.00;86.00;;;;;;5017818;28;88391;-55
2024/02/03 00:05:02;;;;;;;;;;;2.00;86.00;;;;;;5015516;28;87077;-55
2024/02/03 00:07:28;;;;;;;;;;;2.00;86.00;;;;;;5018715;28;86748;-56
2024/02/03 00:09:53;;;;;;;;;;;2.00;86.10;;;;;;5017643;28;86621;-56
2024/02/03 00:12:21;;;;;;;;;;;2.00;86.10;;;;;;5015555;28;87086;-56
2024/02/03 00:14:49;;;;;;;;;;;2.00;86.10;;;;;;5017932;28;87478;-56
2024/02/03 00:17:15;;;;;;;;;;;2.00;86.20;;;;;;5011638;28;87966;-57
2024/02/03 00:19:40;;;;;;;;;;;2.00;86.10;;;;;;5014974;28;87590;-56
2024/02/03 00:22:06;;;;;;;;;;;2.00;86.10;;;;;;5018263;28;88422;-56
2024/02/03 00:24:32;;;;;;;;;;;2.00;86.10;;;;;;5014761;28;87143;-57
2024/02/03 00:26:57;;;;;;;;;;;2.00;86.10;;;;;;5013770;28;86864;-56
2024/02/03 00:29:23;;;;;;;;;;;2.00;86.10;;;;;;5014277;28;87521;-56
2024/02/03 00:31:48;;;;;;;;;;;2.00;86.10;;;;;;5017798;28;86932;-56
2024/02/03 00:34:14;;;;;;;;;;;2.00;86.10;;;;;;5018571;28;86810;-56
2024/02/03 00:36:40;;;;;;;;;;;2.00;85.90;;;;;;5014688;28;87067;-57
2024/02/03 00:39:06;;;;;;;;;;;2.00;85.90;;;;;;5014756;28;86929;-57
2024/02/03 00:41:32;;;;;;;;;;;1.90;86.00;;;;;;5011597;28;89454;-55
2024/02/03 00:43:57;;;;;;;;;;;2.00;86.00;;;;;;5014906;28;86979;-56
2024/02/03 00:46:23;;;;;;;;;;;2.00;86.10;;;;;;5014664;28;86868;-57
2024/02/03 00:48:48;;;;;;;;;;;2.00;86.00;;;;;;5014241;28;87313;-57
2024/02/03 00:51:15;;;;;;;;;;;2.00;86.10;;;;;;5013820;28;87075;-57
2024/02/03 00:53:43;;;;;;;;;;;2.00;86.00;;;;;;5020184;28;87032;-55
2024/02/03 00:56:10;;;;;;;;;;;2.00;86.00;;;;;;5013642;28;87844;-56
2024/02/03 00:58:36;;;;;;;;;;;2.00;86.00;;;;;;5014833;28;86709;-55
2024/02/03 01:01:01;;;;;;;;;;;1.90;86.00;;;;;;5011389;28;87530;-57
2024/02/03 01:03:27;;;;;;;;;;;1.90;86.00;;;;;;5018118;28;86908;-56
2024/02/03 01:05:52;;;;;;;;;;;1.90;86.10;;;;;;5014117;28;87728;-57
2024/02/03 01:08:18;;;;;;;;;;;1.90;86.10;;;;;;5017916;28;87563;-56
2024/02/03 01:10:44;;;;;;;;;;;1.90;86.00;;;;;;5014198;28;86938;-57
2024/02/03 01:13:10;;;;;;;;;;;1.90;86.00;;;;;;5017851;28;88692;-56
2024/02/03 01:15:35;;;;;;;;;;;1.90;86.00;;;;;;5014567;28;87005;-57
2024/02/03 01:18:03;;;;;;;;;;;1.90;86.10;;;;;;5013696;28;87951;-56
2024/02/03 01:20:29;;;;;;;;;;;1.90;86.00;;;;;;5013328;28;88561;-55
2024/02/03 01:22:54;;;;;;;;;;;1.90;86.20;;;;;;5017004;28;86202;-55
2024/02/03 01:25:20;;;;;;;;;;;1.90;86.00;;;;;;5012531;28;86987;-57
2024/02/03 01:27:45;;;;;;;;;;;1.90;86.10;;;;;;5010694;28;86975;-56
2024/02/03 01:30:11;;;;;;;;;;;1.90;86.10;;;;;;5009199;28;87945;-57
2024/02/03 01:32:36;;;;;;;;;;;1.90;86.10;;;;;;5017633;28;87750;-54
2024/02/03 01:35:04;;;;;;;;;;;1.90;86.10;;;;;;5014221;28;87416;-55
2024/02/03 01:37:30;;;;;;;;;;;1.90;86.10;;;;;;5017364;28;86912;-56
2024/02/03 01:39:55;;;;;;;;;;;1.90;86.10;;;;;;5009540;28;87379;-57
2024/02/03 01:42:21;;;;;;;;;;;1.90;86.10;;;;;;5017269;28;86948;-56
2024/02/03 01:44:47;;;;;;;;;;;1.90;86.00;;;;;;5012901;28;87226;-57
2024/02/03 01:47:12;;;;;;;;;;;1.90;86.10;;;;;;5020962;28;86162;-57
2024/02/03 01:49:38;;;;;;;;;;;1.90;86.00;;;;;;5017571;28;86978;-56
2024/02/03 01:52:04;;;;;;;;;;;1.80;86.00;;;;;;5020854;28;87052;-56
2024/02/03 01:54:30;;;;;;;;;;;1.90;86.00;;;;;;5012470;28;87687;-57
2024/02/03 01:56:57;;;;;;;;;;;1.90;86.00;;;;;;5023428;28;86897;-54
2024/02/03 01:59:24;;;;;;;;;;;1.80;86.00;;;;;;5014638;28;87539;-54
2024/02/03 02:01:50;;;;;;;;;;;1.80;86.00;;;;;;5017706;28;86900;-56
2024/02/03 02:04:16;;;;;;;;;;;1.80;86.00;;;;;;5014898;28;87017;-56
2024/02/03 02:06:42;;;;;;;;;;;1.80;86.10;;;;;;5014085;28;88925;-56
2024/02/03 02:09:07;;;;;;;;;;;1.80;86.10;;;;;;5016276;28;87012;-57
2024/02/03 02:11:33;;;;;;;;;;;1.80;86.10;;;;;;5018272;28;86308;-57
2024/02/03 02:13:59;;;;;;;;;;;1.80;86.00;;;;;;5016527;28;87507;-57
2024/02/03 02:16:24;;;;;;;;;;;1.80;86.00;;;;;;5015743;28;86921;-56
2024/02/03 02:18:50;;;;;;;;;;;1.80;86.00;;;;;;5016941;28;88169;-56
2024/02/03 02:21:16;;;;;;;;;;;1.80;86.00;;;;;;5019970;28;87088;-57
2024/02/03 02:23:41;;;;;;;;;;;1.80;86.00;;;;;;5018580;28;87003;-56
2024/02/03 02:26:07;;;;;;;;;;;1.80;86.10;;;;;;5012872;28;88554;-58
2024/02/03 02:28:33;;;;;;;;;;;1.70;85.90;;;;;;5015596;28;86967;-58
2024/02/03 02:30:59;;;;;;;;;;;1.70;86.10;;;;;;5016212;28;87895;-57
2024/02/03 02:33:24;;;;;;;;;;;1.70;86.00;;;;;;5019504;28;87289;-56
2024/02/03 02:35:50;;;;;;;;;;;1.70;86.10;;;;;;5020487;28;87264;-57
2024/02/03 02:38:19;;;;;;;;;;;1.70;85.80;;;;;;5016095;28;87115;-54
2024/02/03 02:40:44;;;;;;;;;;;1.70;85.90;;;;;;5018352;28;88525;-57
2024/02/03 02:43:10;;;;;;;;;;;1.70;85.80;;;;;;5009958;28;87968;-57
2024/02/03 02:45:35;;;;;;;;;;;1.70;86.40;;;;;;5019852;28;88555;-56
2024/02/03 02:48:01;;;;;;;;;;;1.70;85.90;;;;;;5017362;28;87064;-57
2024/02/03 02:50:27;;;;;;;;;;;1.70;85.80;;;;;;5015896;28;87819;-56
2024/02/03 02:52:52;;;;;;;;;;;1.70;85.80;;;;;;5017171;28;87463;-57
2024/02/03 02:55:18;;;;;;;;;;;1.70;85.90;;;;;;5017960;28;87040;-56
2024/02/03 02:57:43;;;;;;;;;;;1.70;85.80;;;;;;5017365;28;86993;-58
2024/02/03 03:00:11;;;;;;;;;;;1.70;85.80;;;;;;5016039;28;86746;-58
2024/02/03 03:02:37;;;;;;;;;;;1.70;85.80;;;;;;5017447;28;86962;-57
2024/02/03 03:05:03;;;;;;;;;;;1.70;85.80;;;;;;5018418;28;87389;-58
2024/02/03 03:07:29;;;;;;;;;;;1.70;85.80;;;;;;5016320;28;87984;-57
2024/02/03 03:09:55;;;;;;;;;;;1.70;85.80;;;;;;5018402;28;87667;-57
2024/02/03 03:12:20;;;;;;;;;;;1.70;85.90;;;;;;5013372;28;86890;-58
2024/02/03 03:14:46;;;;;;;;;;;1.60;85.80;;;;;;5015842;28;86896;-57
2024/02/03 03:17:11;;;;;;;;;;;1.70;85.90;;;;;;5016897;28;87755;-57
2024/02/03 03:19:37;;;;;;;;;;;1.60;85.90;;;;;;5018168;28;87649;-58
2024/02/03 03:22:03;;;;;;;;;;;1.60;86.00;;;;;;5020064;28;86980;-57
2024/02/03 03:24:29;;;;;;;;;;;1.60;85.90;;;;;;5018503;28;86788;-56
2024/02/03 03:26:54;;;;;;;;;;;1.60;85.90;;;;;;5017077;28;87006;-58
2024/02/03 03:29:20;;;;;;;;;;;1.60;85.90;;;;;;5019655;28;86750;-58
2024/02/03 03:31:45;;;;;;;;;;;1.60;86.00;;;;;;5017162;28;89510;-57
2024/02/03 03:34:12;;;;;;;;;;;1.60;85.90;;;;;;5017973;28;86977;-58
2024/02/03 03:36:37;;;;;;;;;;;1.60;86.00;;;;;;5013696;28;87363;-57
2024/02/03 03:39:03;;;;;;;;;;;1.60;85.90;;;;;;5015193;28;87499;-58
2024/02/03 03:41:29;;;;;;;;;;;1.60;86.00;;;;;;5016639;28;87110;-57
2024/02/03 03:43:54;;;;;;;;;;;1.60;85.90;;;;;;5016236;28;87081;-55
2024/02/03 03:46:20;;;;;;;;;;;1.60;85.90;;;;;;5015332;28;87025;-56
2024/02/03 03:48:45;;;;;;;;;;;1.60;86.10;;;;;;5013925;28;86731;-57
2024/02/03 03:51:11;;;;;;;;;;;1.60;85.90;;;;;;5017766;28;87011;-58
2024/02/03 03:53:36;;;;;;;;;;;1.60;85.90;;;;;;5015610;28;87031;-58
2024/02/03 03:56:02;;;;;;;;;;;1.50;86.00;;;;;;5007747;28;88579;-58
2024/02/03 03:58:28;;;;;;;;;;;1.60;86.00;;;;;;5013911;28;87451;-58
2024/02/03 04:00:53;;;;;;;;;;;1.50;86.00;;;;;;5016174;28;87020;-57
2024/02/03 04:03:19;;;;;;;;;;;1.60;86.00;;;;;;5015806;28;86960;-56
2024/02/03 04:05:45;;;;;;;;;;;1.50;85.90;;;;;;5019357;28;86930;-58
2024/02/03 04:08:10;;;;;;;;;;;1.60;85.90;;;;;;5011128;28;86877;-58
2024/02/03 04:10:36;;;;;;;;;;;1.50;85.90;;;;;;5015892;28;87320;-58
2024/02/03 04:13:02;;;;;;;;;;;1.60;85.90;;;;;;5015510;28;86807;-58
2024/02/03 04:15:28;;;;;;;;;;;1.50;85.80;;;;;;5018022;28;86995;-57
2024/02/03 04:17:56;;;;;;;;;;;1.60;85.90;;;;;;5016893;28;87731;-58
2024/02/03 04:20:23;;;;;;;;;;;1.50;86.00;;;;;;5014050;28;87979;-57
2024/02/03 04:22:48;;;;;;;;;;;1.50;85.90;;;;;;5015524;28;87692;-58
2024/02/03 04:25:14;;;;;;;;;;;1.50;85.80;;;;;;5012337;28;87328;-58
2024/02/03 04:27:39;;;;;;;;;;;1.60;85.70;;;;;;5014900;28;86999;-58
2024/02/03 04:30:06;;;;;;;;;;;1.50;85.60;;;;;;5014504;28;87328;-58
2024/02/03 04:32:32;;;;;;;;;;;1.60;85.60;;;;;;5017089;28;86974;-57
2024/02/03 04:34:58;;;;;;;;;;;1.50;85.60;;;;;;5008377;28;87821;-58
2024/02/03 04:37:23;;;;;;;;;;;1.50;85.60;;;;;;5008273;28;86796;-58
2024/02/03 04:39:49;;;;;;;;;;;1.50;85.70;;;;;;5017060;28;87134;-58
2024/02/03 04:42:14;;;;;;;;;;;1.50;85.60;;;;;;5011330;28;86829;-58
2024/02/03 04:44:41;;;;;;;;;;;1.50;85.60;;;;;;5017464;28;89417;-58
2024/02/03 04:47:06;;;;;;;;;;;1.50;85.50;;;;;;5014093;28;87131;-57
2024/02/03 04:49:32;;;;;;;;;;;1.50;85.50;;;;;;5017125;28;86781;-58
2024/02/03 04:52:00;;;;;;;;;;;1.50;85.40;;;;;;5016211;28;87013;-58
2024/02/03 04:54:26;;;;;;;;;;;1.50;85.30;;;;;;5014392;28;87844;-58
2024/02/03 04:56:52;;;;;;;;;;;1.50;85.30;;;;;;5015970;28;87457;-58
2024/02/03 04:59:18;;;;;;;;;;;1.50;85.20;;;;;;5016591;28;87011;-58
2024/02/03 05:01:43;;;;;;;;;;;1.50;85.40;;;;;;5016531;28;87942;-58
2024/02/03 05:04:09;;;;;;;;;;;1.50;85.30;;;;;;5015844;28;88593;-58
2024/02/03 05:06:34;;;;;;;;;;;1.50;85.30;;;;;;5018589;28;86740;-57
2024/02/03 05:09:00;;;;;;;;;;;1.50;85.30;;;;;;5009345;28;87959;-58
2024/02/03 05:11:26;;;;;;;;;;;1.50;85.30;;;;;;5016535;28;88442;-58
2024/02/03 05:13:51;;;;;;;;;;;1.50;85.30;;;;;;5013330;28;87754;-57
2024/02/03 05:16:17;;;;;;;;;;;1.50;85.30;;;;;;5015713;28;88592;-58
2024/02/03 05:18:42;;;;;;;;;;;1.50;85.40;;;;;;5014034;28;87029;-57
2024/02/03 05:21:08;;;;;;;;;;;1.50;85.40;;;;;;5017729;28;87269;-58
2024/02/03 05:23:34;;;;;;;;;;;1.50;85.30;;;;;;5018121;28;87481;-57
2024/02/03 05:25:59;;;;;;;;;;;1.50;85.20;;;;;;5016509;28;86336;-58
2024/02/03 05:28:25;;;;;;;;;;;1.50;85.30;;;;;;5017479;28;86940;-57
2024/02/03 05:30:50;;;;;;;;;;;1.40;85.20;;;;;;5018325;28;87464;-58
2024/02/03 05:33:16;;;;;;;;;;;1.40;85.30;;;;;;5013807;28;87909;-58
2024/02/03 05:35:41;;;;;;;;;;;1.40;85.30;;;;;;5014051;28;88627;-57
2024/02/03 05:38:07;;;;;;;;;;;1.40;85.20;;;;;;5015834;28;87167;-58
2024/02/03 05:40:32;;;;;;;;;;;1.40;85.20;;;;;;5018393;28;86835;-58
2024/02/03 05:42:59;;;;;;;;;;;1.50;85.20;;;;;;5018641;28;87475;-58
2024/02/03 05:45:25;;;;;;;;;;;1.40;85.20;;;;;;5017162;28;87003;-56
2024/02/03 05:47:50;;;;;;;;;;;1.40;85.30;;;;;;5019091;28;86870;-58
2024/02/03 05:50:16;;;;;;;;;;;1.40;85.10;;;;;;5019491;28;87757;-58
2024/02/03 05:52:42;;;;;;;;;;;1.40;85.20;;;;;;5016819;28;88596;-58
2024/02/03 05:55:08;;;;;;;;;;;1.40;85.10;;;;;;5018368;28;87416;-58
2024/02/03 05:57:33;;;;;;;;;;;1.40;85.10;;;;;;5016066;28;88351;-58
2024/02/03 05:59:59;;;;;;;;;;;1.40;85.20;;;;;;5019539;28;87465;-58
2024/02/03 06:02:28;;;;;;;;;;;1.40;85.20;;;;;;5012677;28;87524;-58
2024/02/03 06:04:53;;;;;;;;;;;1.40;85.10;;;;;;5016713;28;86854;-55
2024/02/03 06:07:19;;;;;;;;;;;1.40;85.00;;;;;;5016261;28;87869;-58
2024/02/03 06:09:44;;;;;;;;;;;1.40;85.00;;;;;;5017523;28;86943;-57
2024/02/03 06:12:10;;;;;;;;;;;1.40;85.00;;;;;;5018992;28;86898;-58
2024/02/03 06:14:36;;;;;;;;;;;1.40;85.00;;;;;;5020031;28;86777;-58
2024/02/03 06:17:01;;;;;;;;;;;1.40;85.00;;;;;;5018406;28;86993;-58
2024/02/03 06:19:27;;;;;;;;;;;1.30;84.90;;;;;;5014764;28;86968;-57
2024/02/03 06:21:52;;;;;;;;;;;1.40;84.90;;;;;;5015701;28;88468;-58
2024/02/03 06:24:18;;;;;;;;;;;1.40;84.90;;;;;;5015059;28;87463;-58
2024/02/03 06:26:43;;;;;;;;;;;1.40;84.90;;;;;;5017483;28;87250;-58
2024/02/03 06:29:10;;;;;;;;;;;1.30;84.80;;;;;;5015636;28;87498;-57
2024/02/03 06:31:36;;;;;;;;;;;1.30;84.90;;;;;;5012905;28;88495;-58
2024/02/03 06:34:02;;;;;;;;;;;1.30;84.80;;;;;;5020508;28;86807;-57
2024/02/03 06:36:27;;;;;;;;;;;1.30;84.90;;;;;;5021229;28;87380;-57
2024/02/03 06:38:53;;;;;;;;;;;1.40;85.00;;;;;;5016689;28;86788;-58
2024/02/03 06:41:18;;;;;;;;;;;1.30;84.80;;;;;;5015217;28;87431;-57
2024/02/03 06:43:44;;;;;;;;;;;1.30;84.70;;;;;;5014213;28;86961;-58
2024/02/03 06:46:12;;;;;;;;;;;1.40;84.80;;;;;;5012848;28;88071;-58
2024/02/03 06:48:38;;;;;;;;;;;1.40;84.70;;;;;;5017986;28;87304;-58
2024/02/03 06:51:03;;;;;;;;;;;1.40;84.60;;;;;;5018360;28;87227;-58
2024/02/03 06:53:29;;;;;;;;;;;1.40;84.60;;;;;;5018208;28;86984;-57
2024/02/03 06:55:56;;;;;;;;;;;1.40;84.50;;;;;;5017981;28;86955;-58
2024/02/03 06:58:22;;;;;;;;;;;1.30;84.50;;;;;;5021222;28;87655;-58
2024/02/03 07:00:47;;;;;;;;;;;1.40;84.50;;;;;;5019926;28;87532;-57
2024/02/03 07:03:13;;;;;;;;;;;1.40;84.50;;;;;;5018562;28;86286;-58
2024/02/03 07:05:40;;;;;;;;;;;1.40;84.50;;;;;;5018334;28;87020;-58
2024/02/03 07:08:06;;;;;;;;;;;1.40;84.50;;;;;;5017116;28;88515;-56
2024/02/03 07:10:32;;;;;;;;;;;1.40;84.50;;;;;;5015295;28;87926;-58
2024/02/03 07:12:59;;;;;;;;;;;1.30;84.50;;;;;;5015704;28;88858;-57
2024/02/03 07:15:27;;;;;;;;;;;1.30;84.50;;;;;;5016674;28;88445;-57
2024/02/03 07:17:53;;;;;;;;;;;1.40;84.50;;;;;;5019774;28;87120;-57
2024/02/03 07:20:19;;;;;;;;;;;1.40;84.30;;;;;;5019334;28;86594;-56
2024/02/03 07:22:44;;;;;;;;;;;1.40;84.20;;;;;;5014522;28;86989;-58
2024/02/03 07:25:12;;;;;;;;;;;1.40;84.50;;;;;;5014972;28;86964;-58
2024/02/03 07:27:37;;;;;;;;;;;1.30;84.60;;;;;;5016114;28;86203;-58
2024/02/03 07:30:03;;;;;;;;;;;1.40;84.50;;;;;;5013368;28;87031;-58
2024/02/03 07:32:29;;;;;;;;;;;1.30;84.60;;;;;;5012091;28;86992;-55
2024/02/03 07:34:55;;;;;;;;;;;1.30;84.60;;;;;;5018995;28;89655;-58
2024/02/03 07:37:21;;;;;;;;;;;1.30;84.70;;;;;;5015165;28;87104;-58
2024/02/03 07:39:47;;;;;;;;;;;1.30;84.90;;;;;;5015811;28;87066;-57
2024/02/03 07:42:15;;;;;;;;;;;1.30;84.90;;;;;;5014585;28;87610;-58
2024/02/03 07:44:44;;;;;;;;;;;1.30;85.00;;;;;;5019178;28;87871;-55
2024/02/03 07:47:09;;;;;;;;;;;1.30;85.00;;;;;;5014863;28;88309;-57
2024/02/03 07:49:35;;;;;;;;;;;1.30;85.10;;;;;;5014986;28;87057;-58
2024/02/03 07:52:00;;;;;;;;;;;1.30;85.10;;;;;;5019235;28;86971;-58
2024/02/03 07:54:26;;;;;;;;;;;1.20;85.30;;;;;;5015034;28;87401;-58
2024/02/03 07:56:52;;;;;;;;;;;1.20;85.20;;;;;;5018386;28;86862;-58
2024/02/03 07:59:18;;;;;;;;;;;1.20;85.20;;;;;;5014628;28;88109;-58
2024/02/03 08:01:44;;;;;;;;;;;1.20;85.20;;;;;;5015375;28;88560;-57
2024/02/03 08:04:09;;;;;;;;;;;1.20;85.40;;;;;;5015190;28;86760;-57
2024/02/03 08:06:35;;;;;;;;;;;1.20;85.30;;;;;;5014835;28;87562;-58
2024/02/03 08:09:00;;;;;;;;;;;1.20;85.40;;;;;;5017066;28;87084;-58
2024/02/03 08:11:26;;;;;;;;;;;1.20;85.80;;;;;;5015307;28;88229;-58
2024/02/03 08:13:51;;;;;;;;;;;1.20;85.20;;;;;;5014249;28;87312;-58
2024/02/03 08:16:17;;;;;;;;;;;1.20;85.30;;;;;;5015401;28;86151;-58
2024/02/03 08:18:43;;;;;;;;;;;1.20;85.30;;;;;;5015154;28;86863;-58
2024/02/03 08:21:08;;;;;;;;;;;1.20;85.40;;;;;;5017859;28;88744;-57
2024/02/03 08:23:34;;;;;;;;;;;1.20;85.30;;;;;;5016168;28;88050;-56
2024/02/03 08:25:59;;;;;;;;;;;1.20;85.40;;;;;;5018136;28;87429;-58
2024/02/03 08:28:25;;;;;;;;;;;1.20;85.40;;;;;;5018697;28;86953;-58
2024/02/03 08:30:50;;;;;;;;;;;1.20;85.50;;;;;;5018670;28;86876;-57
2024/02/03 08:33:16;;;;;;;;;;;1.20;85.60;;;;;;5013478;28;87302;-57
2024/02/03 08:35:41;;;;;;;;;;;1.20;85.50;;;;;;5013973;28;87228;-58
2024/02/03 08:38:07;;;;;;;;;;;1.20;85.60;;;;;;5015002;28;86986;-56
2024/02/03 08:40:33;;;;;;;;;;;1.20;85.60;;;;;;5018175;28;86763;-57
2024/02/03 08:42:58;;;;;;;;;;;1.20;85.60;;;;;;5018083;28;87075;-55
2024/02/03 08:45:24;;;;;;;;;;;1.20;85.70;;;;;;5017073;28;86899;-58
2024/02/03 08:47:50;;;;;;;;;;;1.20;85.60;;;;;;5013549;28;88026;-55
2024/02/03 08:50:15;;;;;;;;;;;1.20;86.20;;;;;;5010312;28;88990;-57
2024/02/03 08:52:41;;;;;;;;;;;1.20;85.60;;;;;;5013728;28;88558;-57
2024/02/03 08:55:07;;;;;;;;;;;1.20;85.40;;;;;;5017599;28;87319;-57
2024/02/03 08:57:32;;;;;;;;;;;1.20;85.60;;;;;;5014674;28;87804;-56
2024/02/03 08:59:58;;;;;;;;;;;1.20;85.60;;;;;;5020334;28;87412;-57
2024/02/03 09:02:24;;;;;;;;;;;1.20;85.60;;;;;;5017799;28;87027;-56
2024/02/03 09:04:49;;;;;;;;;;;1.20;85.50;;;;;;5021959;28;86788;-58
2024/02/03 09:07:15;;;;;;;;;;;1.20;85.80;;;;;;5021114;28;87462;-57
2024/02/03 09:09:41;;;;;;;;;;;1.20;85.60;;;;;;5021237;28;86693;-57
2024/02/03 09:12:06;;;;;;;;;;;1.20;85.70;;;;;;5017196;28;89381;-58
2024/02/03 09:14:32;;;;;;;;;;;1.20;85.50;;;;;;5021149;28;87017;-55
2024/02/03 09:16:58;;;;;;;;;;;1.20;85.70;;;;;;5018610;28;87207;-55
2024/02/03 09:19:24;;;;;;;;;;;1.20;85.50;;;;;;5020556;28;88395;-56
2024/02/03 09:21:50;;;;;;;;;;;1.30;85.60;;;;;;5013227;28;87051;-56
2024/02/03 09:24:15;;;;;;;;;;;1.20;85.60;;;;;;5014580;28;86987;-56
2024/02/03 09:26:41;;;;;;;;;;;1.20;85.60;;;;;;5017393;28;88733;-57
2024/02/03 09:29:07;;;;;;;;;;;1.20;85.70;;;;;;5020029;28;86261;-57
2024/02/03 09:31:33;;;;;;;;;;;1.20;85.70;;;;;;5017981;28;87415;-55
2024/02/03 09:34:03;;;;;;;;;;;1.30;85.70;;;;;;5020756;28;87032;-57
2024/02/03 09:36:29;;;;;;;;;;;1.30;85.70;;;;;;5020620;28;87767;-56
2024/02/03 09:38:55;;;;;;;;;;;1.30;85.80;;;;;;5017170;28;87292;-57
2024/02/03 09:41:21;;;;;;;;;;;1.30;85.90;;;;;;5016956;28;86928;-52
2024/02/03 09:43:47;;;;;;;;;;;1.30;85.80;;;;;;5017336;28;86867;-57
2024/02/03 09:46:13;;;;;;;;;;;1.30;85.70;;;;;;5017087;28;87221;-56
2024/02/03 09:48:38;;;;;;;;;;;1.40;85.70;;;;;;5024101;28;86948;-56
2024/02/03 09:51:04;;;;;;;;;;;1.30;85.70;;;;;;5013744;28;87315;-56
2024/02/03 09:53:29;;;;;;;;;;;1.30;85.90;;;;;;5013594;28;86266;-56
2024/02/03 09:55:56;;;;;;;;;;;1.30;86.00;;;;;;5017245;28;87025;-54
2024/02/03 09:58:23;;;;;;;;;;;1.30;85.90;;;;;;5016475;28;88545;-54
2024/02/03 10:00:50;;;;;;;;;;;1.40;85.80;;;;;;5016513;28;88058;-56
2024/02/03 10:03:17;;;;;;;;;;;1.40;85.90;;;;;;5017100;28;87077;-55
2024/02/03 10:05:42;;;;;;;;;;;1.30;85.90;;;;;;5016249;28;88404;-57
2024/02/03 10:08:10;;;;;;;;;;;1.40;86.10;;;;;;5020651;28;87009;-55
2024/02/03 10:10:35;;;;;;;;;;;1.40;86.20;;;;;;5019998;28;87889;-57
2024/02/03 10:13:07;;;;;;;;;;;1.40;86.40;;;;;;5019862;28;87012;-56
2024/02/03 10:15:34;;;;;;;;;;;1.40;86.50;;;;;;5018287;28;87864;-56
2024/02/03 10:17:59;;;;;;;;;;;1.30;86.70;;;;;;5016698;28;86689;-56
2024/02/03 10:20:26;;;;;;;;;;;1.30;86.60;;;;;;5017873;28;87009;-56
2024/02/03 10:22:51;;;;;;;;;;;1.40;86.50;;;;;;5016002;28;87084;-57
2024/02/03 10:25:20;;;;;;;;;;;1.40;86.50;;;;;;5015633;28;87942;-57
2024/02/03 10:27:46;;;;;;;;;;;1.40;86.40;;;;;;5014144;28;86928;-57
2024/02/03 10:30:19;;;;;;;;;;;1.40;86.50;;;;;;5018829;28;86945;-57
2024/02/03 10:32:45;;;;;;;;;;;1.40;86.70;;;;;;5016090;28;88559;-56
2024/02/03 10:35:11;;;;;;;;;;;1.40;86.70;;;;;;5016446;28;86918;-55
2024/02/03 10:37:37;;;;;;;;;;;1.40;86.80;;;;;;5017027;28;87526;-55
2024/02/03 10:40:03;;;;;;;;;;;1.40;86.90;;;;;;5015955;28;87075;-56
2024/02/03 10:42:32;;;;;;;;;;;1.40;87.00;;;;;;5020298;28;86627;-56
2024/02/03 10:45:00;;;;;;;;;;;1.40;87.10;;;;;;5018849;28;87641;-53
2024/02/03 10:47:25;;;;;;;;;;;1.40;87.00;;;;;;5016494;28;86978;-56
2024/02/03 10:49:54;;;;;;;;;;;1.40;87.40;;;;;;5015796;28;87832;-56
2024/02/03 10:52:20;;;;;;;;;;;1.40;87.30;;;;;;5015934;28;88452;-56
2024/02/03 10:54:47;;;;;;;;;;;1.40;87.20;;;;;;5018030;28;87051;-56
2024/02/03 10:57:15;;;;;;;;;;;1.40;87.40;;;;;;5018775;28;88136;-54
2024/02/03 10:59:41;;;;;;;;;;;1.40;87.80;;;;;;5014138;28;87082;-53
2024/02/03 11:02:17;;;;;;;;;;;1.40;87.40;;;;;;5019124;28;87880;-55
2024/02/03 11:04:46;;;;;;;;;;;1.40;87.40;;;;;;5017968;28;88096;-56
2024/02/03 11:07:20;;;;;;;;;;;1.40;87.30;;;;;;5013587;28;86258;-55
2024/02/03 11:09:49;;;;;;;;;;;1.40;87.40;;;;;;5013395;28;86936;-55
2024/02/03 11:12:15;;;;;;;;;;;1.40;87.60;;;;;;5015430;28;87790;-55
2024/02/03 11:14:43;;;;;;;;;;;1.40;87.60;;;;;;5011895;28;87958;-56
2024/02/03 11:17:10;;;;;;;;;;;1.40;87.50;;;;;;5020645;28;87557;-54
2024/02/03 11:19:36;;;;;;;;;;;1.40;87.60;;;;;;5012532;28;87038;-56
2024/02/03 11:22:05;;;;;;;;;;;1.40;87.50;;;;;;5014719;28;87059;-55
2024/02/03 11:24:33;;;;;;;;;;;1.40;87.60;;;;;;5016036;28;88502;-54
2024/02/03 11:26:59;;;;;;;;;;;1.40;87.60;;;;;;5012828;28;87028;-56
2024/02/03 11:29:25;;;;;;;;;;;1.40;87.70;;;;;;5013068;28;87842;-56
2024/02/03 11:31:57;;;;;;;;;;;1.40;87.60;;;;;;5017774;28;87842;-55
2024/02/03 11:34:30;;;;;;;;;;;1.40;87.70;;;;;;5018320;28;87024;-56
2024/02/03 11:36:56;;;;;;;;;;;1.40;87.80;;;;;;5018329;28;87806;-56
2024/02/03 11:39:34;;;;;;;;;;;1.40;87.80;;;;;;5014756;28;87998;-55
2024/02/03 11:42:01;;;;;;;;;;;1.40;87.80;;;;;;5010280;28;87648;-55
2024/02/03 11:44:33;;;;;;;;;;;1.40;87.70;;;;;;5015043;28;87920;-54
2024/02/03 11:46:59;;;;;;;;;;;1.50;88.00;;;;;;5014967;28;86885;-55
2024/02/03 11:49:24;;;;;;;;;;;1.50;87.80;;;;;;5013171;28;87047;-55
2024/02/03 11:51:57;;;;;;;;;;;1.50;87.90;;;;;;5013873;28;87557;-56
2024/02/03 11:54:23;;;;;;;;;;;1.50;87.70;;;;;;5015854;28;87028;-56
2024/02/03 11:56:49;;;;;;;;;;;1.50;87.90;;;;;;5019273;28;86645;-55
2024/02/03 11:59:23;;;;;;;;;;;1.50;87.90;;;;;;5019462;28;88648;-56
2024/02/03 12:01:49;;;;;;;;;;;1.50;88.10;;;;;;5019679;28;87141;-56
2024/02/03 12:04:15;;;;;;;;;;;1.50;88.00;;;;;;5018311;28;88445;-54
2024/02/03 12:06:41;;;;;;;;;;;1.50;88.00;;;;;;5015902;28;87019;-55
2024/02/03 12:09:08;;;;;;;;;;;1.50;87.90;;;;;;5013853;28;87857;-54
2024/02/03 12:11:34;;;;;;;;;;;1.50;88.10;;;;;;5014463;28;88841;-57
2024/02/03 12:14:00;;;;;;;;;;;1.60;87.70;;;;;;5017621;28;87515;-57
2024/02/03 12:16:27;;;;;;;;;;;1.60;87.90;;;;;;5011580;28;87013;-55
2024/02/03 12:18:52;;;;;;;;;;;1.60;87.90;;;;;;5017536;28;87318;-56
2024/02/03 12:21:18;;;;;;;;;;;1.60;87.80;;;;;;5013110;28;86441;-56
2024/02/03 12:23:44;;;;;;;;;;;1.60;87.80;;;;;;5017885;28;87446;-57
2024/02/03 12:26:10;;;;;;;;;;;1.60;88.10;;;;;;5015466;28;87879;-55
2024/02/03 12:28:36;;;;;;;;;;;1.60;88.00;;;;;;5016320;28;89380;-57
2024/02/03 12:31:03;;;;;;;;;;;1.60;88.00;;;;;;5010615;28;87551;-56
2024/02/03 12:33:28;;;;;;;;;;;1.60;88.10;;;;;;5017553;28;86978;-57
2024/02/03 12:35:54;;;;;;;;;;;1.60;88.10;;;;;;5018481;28;87084;-57
2024/02/03 12:38:21;;;;;;;;;;;1.60;88.10;;;;;;5008929;28;88608;-55
2024/02/03 12:40:50;;;;;;;;;;;1.60;88.00;;;;;;5011603;28;86961;-56
2024/02/03 12:43:15;;;;;;;;;;;1.60;88.00;;;;;;5012394;28;86923;-57
2024/02/03 12:45:41;;;;;;;;;;;1.60;88.10;;;;;;5017580;28;86236;-57
2024/02/03 12:48:06;;;;;;;;;;;1.70;88.10;;;;;;5011075;28;86922;-55
2024/02/03 12:50:33;;;;;;;;;;;1.70;88.30;;;;;;5013968;28;88493;-57
2024/02/03 12:53:02;;;;;;;;;;;1.70;88.20;;;;;;5013451;28;87933;-56
2024/02/03 12:55:27;;;;;;;;;;;1.70;88.10;;;;;;5016227;28;88954;-57
2024/02/03 12:57:53;;;;;;;;;;;1.60;88.10;;;;;;5016264;28;87395;-56
2024/02/03 13:00:19;;;;;;;;;;;1.70;88.20;;;;;;5016400;28;86996;-56
2024/02/03 13:02:45;;;;;;;;;;;1.70;88.10;;;;;;5013010;28;89537;-56
2024/02/03 13:05:10;;;;;;;;;;;1.70;88.20;;;;;;5018632;28;88643;-56
2024/02/03 13:07:36;;;;;;;;;;;1.70;87.90;;;;;;5016504;28;87245;-56
2024/02/03 13:10:02;;;;;;;;;;;1.80;88.10;;;;;;5012363;28;86791;-55
2024/02/03 13:12:28;;;;;;;;;;;1.70;88.50;;;;;;5011869;28;86960;-55
2024/02/03 13:14:53;;;;;;;;;;;1.80;87.90;;;;;;5013789;28;87976;-56
2024/02/03 13:17:19;;;;;;;;;;;1.80;87.90;;;;;;5015274;28;88367;-57
2024/02/03 13:19:45;;;;;;;;;;;1.80;88.00;;;;;;5013646;28;87042;-57
2024/02/03 13:22:14;;;;;;;;;;;1.80;88.00;;;;;;5017850;28;87840;-57
2024/02/03 13:24:40;;;;;;;;;;;1.80;88.00;;;;;;5016141;28;88469;-57
2024/02/03 13:27:06;;;;;;;;;;;1.90;88.00;;;;;;5018415;28;86981;-56
2024/02/03 13:29:32;;;;;;;;;;;1.90;88.00;;;;;;5014330;28;88371;-56
2024/02/03 13:31:57;;;;;;;;;;;1.90;88.00;;;;;;5010936;28;87566;-57
2024/02/03 13:34:23;;;;;;;;;;;1.90;88.00;;;;;;5013115;28;87016;-56
2024/02/03 13:36:49;;;;;;;;;;;1.90;88.00;;;;;;5010795;28;88519;-57
2024/02/03 13:39:15;;;;;;;;;;;1.90;88.10;;;;;;5017129;28;87032;-56
2024/02/03 13:41:40;;;;;;;;;;;1.90;88.10;;;;;;5009142;28;88097;-57
2024/02/03 13:44:06;;;;;;;;;;;1.90;88.10;;;;;;5019859;28;86927;-57
2024/02/03 13:46:32;;;;;;;;;;;1.90;87.90;;;;;;5020768;28;86938;-58
2024/02/03 13:48:57;;;;;;;;;;;1.90;88.10;;;;;;5017523;28;88721;-57
2024/02/03 13:51:23;;;;;;;;;;;1.90;88.10;;;;;;5017332;28;86942;-56
2024/02/03 13:53:49;;;;;;;;;;;2.00;88.10;;;;;;5014231;28;89947;-57
2024/02/03 13:56:15;;;;;;;;;;;2.00;88.10;;;;;;5018135;28;86934;-57
2024/02/03 13:58:41;;;;;;;;;;;1.90;88.00;;;;;;5020257;28;86702;-57
2024/02/03 14:01:07;;;;;;;;;;;2.00;88.10;;;;;;5018287;28;87098;-57
2024/02/03 14:03:32;;;;;;;;;;;2.00;88.10;;;;;;5009700;28;87795;-58
2024/02/03 14:05:58;;;;;;;;;;;2.00;88.20;;;;;;5016256;28;88391;-59
2024/02/03 14:08:23;;;;;;;;;;;1.90;86.70;;;;;;5019621;28;88787;-51
2024/02/03 14:10:49;;;;;;;;;;;1.90;86.70;;;;;;5019485;28;87555;-60
2024/02/03 14:13:15;;;;;;;;;;;2.10;87.00;;;;;;5020972;28;86918;-56
2024/02/03 14:15:40;;;;;;;;;;;2.10;87.00;;;;;;5021984;28;86893;-64
2024/02/03 14:18:06;;;;;;;;;;;2.20;86.50;;;;;;5017120;28;87133;-60
2024/02/03 14:20:32;;;;;;;;;;;2.20;85.70;;;;;;5018158;28;87024;-63
2024/02/03 14:22:58;;;;;;;;;;;2.30;86.60;;;;;;5018900;28;86927;-63